< < Back
Terminal Aerodrome Forecast


Current Version              Previous Versions:   1  2  3  4  5  6  7  8  9  

Terminal Aerodrome Forecast

053
FTUS42 KGSP 230800 AAA
TAFCLT
TAF AMD
KCLT 230858Z 2309/2406 33005KT P6SM SKC
     FM231300 34009KT P6SM SKC
     FM240000 02005KT P6SM SKC=



Latest METAR

165
SAUS70 KWBC 232300 RRC
MTRCLT
METAR KCLT 232252Z 34003KT 10SM FEW250 23/M02 A2987 RMK AO2 SLP110
T02331017


USA.gov is the U.S. government's official web portal to all federal, state and local government web resources and services.